sensor_id;sensor_type;location;lat;lon;timestamp;P1;durP1;ratioP1;P2;durP2;ratioP2
21392;SDS011;10857;52.228;21.026;2023-11-21T00:00:03;36.93;;;19.30;;
21392;SDS011;10857;52.228;21.026;2023-11-21T00:02:38;35.80;;;19.50;;
21392;SDS011;10857;52.228;21.026;2023-11-21T00:05:10;35.00;;;19.83;;
21392;SDS011;10857;52.228;21.026;2023-11-21T00:07:40;35.47;;;19.40;;
21392;SDS011;10857;52.228;21.026;2023-11-21T00:10:08;35.77;;;19.97;;
21392;SDS011;10857;52.228;21.026;2023-11-21T00:12:37;33.93;;;19.17;;
21392;SDS011;10857;52.228;21.026;2023-11-21T00:15:05;38.23;;;20.83;;
21392;SDS011;10857;52.228;21.026;2023-11-21T00:17:36;36.90;;;19.63;;
21392;SDS011;10857;52.228;21.026;2023-11-21T00:20:05;36.07;;;19.97;;
21392;SDS011;10857;52.228;21.026;2023-11-21T00:22:34;37.10;;;19.27;;
21392;SDS011;10857;52.228;21.026;2023-11-21T00:25:02;37.50;;;19.40;;
21392;SDS011;10857;52.228;21.026;2023-11-21T00:27:30;38.43;;;20.30;;
21392;SDS011;10857;52.228;21.026;2023-11-21T00:29:57;34.93;;;20.03;;
21392;SDS011;10857;52.228;21.026;2023-11-21T00:32:24;35.97;;;19.37;;
21392;SDS011;10857;52.228;21.026;2023-11-21T00:34:52;37.00;;;19.60;;
21392;SDS011;10857;52.228;21.026;2023-11-21T00:37:19;35.73;;;19.23;;
21392;SDS011;10857;52.228;21.026;2023-11-21T00:39:46;35.93;;;19.30;;
21392;SDS011;10857;52.228;21.026;2023-11-21T00:42:13;34.87;;;19.57;;
21392;SDS011;10857;52.228;21.026;2023-11-21T00:44:40;34.73;;;19.13;;
21392;SDS011;10857;52.228;21.026;2023-11-21T00:47:07;35.47;;;18.43;;
21392;SDS011;10857;52.228;21.026;2023-11-21T00:49:35;35.37;;;19.93;;
21392;SDS011;10857;52.228;21.026;2023-11-21T00:52:02;34.40;;;19.20;;
21392;SDS011;10857;52.228;21.026;2023-11-21T00:54:30;37.07;;;19.67;;
21392;SDS011;10857;52.228;21.026;2023-11-21T00:57:00;36.93;;;19.83;;
21392;SDS011;10857;52.228;21.026;2023-11-21T00:59:27;38.63;;;19.53;;
21392;SDS011;10857;52.228;21.026;2023-11-21T01:01:54;35.53;;;19.10;;
21392;SDS011;10857;52.228;21.026;2023-11-21T01:04:21;36.90;;;19.27;;
21392;SDS011;10857;52.228;21.026;2023-11-21T01:06:48;36.70;;;19.53;;
21392;SDS011;10857;52.228;21.026;2023-11-21T01:09:15;37.73;;;19.67;;
21392;SDS011;10857;52.228;21.026;2023-11-21T01:11:44;37.53;;;19.33;;
21392;SDS011;10857;52.228;21.026;2023-11-21T01:14:13;37.90;;;19.47;;
21392;SDS011;10857;52.228;21.026;2023-11-21T01:16:40;35.90;;;19.67;;
21392;SDS011;10857;52.228;21.026;2023-11-21T01:19:07;34.50;;;20.13;;
21392;SDS011;10857;52.228;21.026;2023-11-21T01:21:36;34.53;;;19.57;;
21392;SDS011;10857;52.228;21.026;2023-11-21T01:24:03;34.77;;;19.93;;
21392;SDS011;10857;52.228;21.026;2023-11-21T01:26:33;38.83;;;20.43;;
21392;SDS011;10857;52.228;21.026;2023-11-21T01:29:00;37.27;;;20.57;;
21392;SDS011;10857;52.228;21.026;2023-11-21T01:31:27;34.73;;;20.10;;
21392;SDS011;10857;52.228;21.026;2023-11-21T01:33:56;39.47;;;20.30;;
21392;SDS011;10857;52.228;21.026;2023-11-21T01:36:29;38.43;;;19.80;;
21392;SDS011;10857;52.228;21.026;2023-11-21T01:38:58;37.33;;;20.20;;
21392;SDS011;10857;52.228;21.026;2023-11-21T01:41:26;39.27;;;20.83;;
21392;SDS011;10857;52.228;21.026;2023-11-21T01:43:55;37.67;;;20.47;;
21392;SDS011;10857;52.228;21.026;2023-11-21T01:46:22;38.20;;;21.03;;
21392;SDS011;10857;52.228;21.026;2023-11-21T01:48:49;38.13;;;20.30;;
21392;SDS011;10857;52.228;21.026;2023-11-21T01:51:17;36.10;;;20.60;;
21392;SDS011;10857;52.228;21.026;2023-11-21T01:53:45;38.03;;;21.10;;
21392;SDS011;10857;52.228;21.026;2023-11-21T01:56:13;39.57;;;21.10;;
21392;SDS011;10857;52.228;21.026;2023-11-21T01:58:41;38.77;;;20.33;;
21392;SDS011;10857;52.228;21.026;2023-11-21T02:01:09;36.37;;;20.03;;
21392;SDS011;10857;52.228;21.026;2023-11-21T02:03:37;39.13;;;20.53;;
21392;SDS011;10857;52.228;21.026;2023-11-21T02:06:04;35.90;;;20.10;;
21392;SDS011;10857;52.228;21.026;2023-11-21T02:08:32;38.37;;;20.93;;
21392;SDS011;10857;52.228;21.026;2023-11-21T02:10:59;37.87;;;20.77;;
21392;SDS011;10857;52.228;21.026;2023-11-21T02:13:26;38.53;;;20.63;;
21392;SDS011;10857;52.228;21.026;2023-11-21T02:15:53;36.60;;;20.20;;
21392;SDS011;10857;52.228;21.026;2023-11-21T02:18:21;36.23;;;20.37;;
21392;SDS011;10857;52.228;21.026;2023-11-21T02:20:49;36.90;;;20.40;;
21392;SDS011;10857;52.228;21.026;2023-11-21T02:23:16;38.33;;;20.03;;
21392;SDS011;10857;52.228;21.026;2023-11-21T02:25:44;38.10;;;20.53;;
21392;SDS011;10857;52.228;21.026;2023-11-21T02:28:11;37.37;;;20.53;;
21392;SDS011;10857;52.228;21.026;2023-11-21T02:30:41;37.03;;;19.47;;
21392;SDS011;10857;52.228;21.026;2023-11-21T02:33:09;35.13;;;19.43;;
21392;SDS011;10857;52.228;21.026;2023-11-21T02:35:36;37.90;;;20.70;;
21392;SDS011;10857;52.228;21.026;2023-11-21T02:38:04;39.73;;;20.33;;
21392;SDS011;10857;52.228;21.026;2023-11-21T02:40:32;33.10;;;19.20;;
21392;SDS011;10857;52.228;21.026;2023-11-21T02:42:59;35.40;;;19.70;;
21392;SDS011;10857;52.228;21.026;2023-11-21T02:45:26;35.57;;;19.70;;
21392;SDS011;10857;52.228;21.026;2023-11-21T02:47:53;33.07;;;18.57;;
21392;SDS011;10857;52.228;21.026;2023-11-21T02:50:25;37.57;;;19.30;;
21392;SDS011;10857;52.228;21.026;2023-11-21T02:52:52;36.83;;;20.37;;
21392;SDS011;10857;52.228;21.026;2023-11-21T02:55:19;36.97;;;19.97;;
21392;SDS011;10857;52.228;21.026;2023-11-21T02:57:46;36.83;;;19.93;;
21392;SDS011;10857;52.228;21.026;2023-11-21T03:00:13;36.53;;;20.10;;
21392;SDS011;10857;52.228;21.026;2023-11-21T03:02:42;35.27;;;19.33;;
21392;SDS011;10857;52.228;21.026;2023-11-21T03:05:10;34.10;;;19.37;;
21392;SDS011;10857;52.228;21.026;2023-11-21T03:07:39;35.80;;;20.50;;
21392;SDS011;10857;52.228;21.026;2023-11-21T03:10:07;38.40;;;20.67;;
21392;SDS011;10857;52.228;21.026;2023-11-21T03:12:41;34.23;;;19.57;;
21392;SDS011;10857;52.228;21.026;2023-11-21T03:15:09;38.47;;;20.73;;
21392;SDS011;10857;52.228;21.026;2023-11-21T03:17:36;40.93;;;20.93;;
21392;SDS011;10857;52.228;21.026;2023-11-21T03:20:04;37.10;;;20.73;;
21392;SDS011;10857;52.228;21.026;2023-11-21T03:22:31;42.13;;;20.40;;
21392;SDS011;10857;52.228;21.026;2023-11-21T03:24:59;41.17;;;20.97;;
21392;SDS011;10857;52.228;21.026;2023-11-21T03:27:27;38.67;;;19.63;;
21392;SDS011;10857;52.228;21.026;2023-11-21T03:29:54;36.17;;;19.40;;
21392;SDS011;10857;52.228;21.026;2023-11-21T03:32:24;38.17;;;20.97;;
21392;SDS011;10857;52.228;21.026;2023-11-21T03:34:55;36.93;;;19.83;;
21392;SDS011;10857;52.228;21.026;2023-11-21T03:37:23;43.13;;;21.47;;
21392;SDS011;10857;52.228;21.026;2023-11-21T03:39:51;40.87;;;21.37;;
21392;SDS011;10857;52.228;21.026;2023-11-21T03:42:18;41.10;;;21.57;;
21392;SDS011;10857;52.228;21.026;2023-11-21T03:44:45;36.90;;;20.47;;
21392;SDS011;10857;52.228;21.026;2023-11-21T03:47:13;35.43;;;20.10;;
21392;SDS011;10857;52.228;21.026;2023-11-21T03:49:40;37.37;;;19.97;;
21392;SDS011;10857;52.228;21.026;2023-11-21T03:52:07;36.07;;;20.17;;
21392;SDS011;10857;52.228;21.026;2023-11-21T03:54:34;35.53;;;19.30;;
21392;SDS011;10857;52.228;21.026;2023-11-21T03:57:01;35.43;;;19.00;;
21392;SDS011;10857;52.228;21.026;2023-11-21T03:59:29;39.13;;;20.27;;
21392;SDS011;10857;52.228;21.026;2023-11-21T04:01:56;35.43;;;19.07;;
21392;SDS011;10857;52.228;21.026;2023-11-21T04:04:23;35.77;;;18.93;;
21392;SDS011;10857;52.228;21.026;2023-11-21T04:06:50;35.50;;;18.83;;
21392;SDS011;10857;52.228;21.026;2023-11-21T04:09:20;35.37;;;19.10;;
21392;SDS011;10857;52.228;21.026;2023-11-21T04:11:53;35.10;;;18.07;;
21392;SDS011;10857;52.228;21.026;2023-11-21T04:14:20;36.13;;;19.83;;
21392;SDS011;10857;52.228;21.026;2023-11-21T04:16:47;35.27;;;19.20;;
21392;SDS011;10857;52.228;21.026;2023-11-21T04:19:15;35.23;;;18.80;;
21392;SDS011;10857;52.228;21.026;2023-11-21T04:21:42;32.70;;;17.83;;
21392;SDS011;10857;52.228;21.026;2023-11-21T04:24:09;34.43;;;17.83;;
21392;SDS011;10857;52.228;21.026;2023-11-21T04:26:37;33.13;;;17.43;;
21392;SDS011;10857;52.228;21.026;2023-11-21T04:29:04;32.27;;;17.17;;
21392;SDS011;10857;52.228;21.026;2023-11-21T04:31:31;32.27;;;17.57;;
21392;SDS011;10857;52.228;21.026;2023-11-21T04:33:58;30.73;;;16.50;;
21392;SDS011;10857;52.228;21.026;2023-11-21T04:36:25;32.87;;;17.07;;
21392;SDS011;10857;52.228;21.026;2023-11-21T04:38:53;31.40;;;16.93;;
21392;SDS011;10857;52.228;21.026;2023-11-21T04:41:20;32.10;;;17.50;;
21392;SDS011;10857;52.228;21.026;2023-11-21T04:43:47;28.30;;;15.83;;
21392;SDS011;10857;52.228;21.026;2023-11-21T04:46:14;32.77;;;16.17;;
21392;SDS011;10857;52.228;21.026;2023-11-21T04:48:41;31.63;;;17.27;;
21392;SDS011;10857;52.228;21.026;2023-11-21T04:51:08;26.10;;;15.33;;
21392;SDS011;10857;52.228;21.026;2023-11-21T04:53:35;26.47;;;15.07;;
21392;SDS011;10857;52.228;21.026;2023-11-21T04:56:02;29.00;;;16.03;;
21392;SDS011;10857;52.228;21.026;2023-11-21T04:58:29;30.07;;;15.80;;
21392;SDS011;10857;52.228;21.026;2023-11-21T05:00:57;29.43;;;16.50;;
21392;SDS011;10857;52.228;21.026;2023-11-21T05:03:24;25.80;;;14.97;;
21392;SDS011;10857;52.228;21.026;2023-11-21T05:05:51;27.33;;;15.30;;
21392;SDS011;10857;52.228;21.026;2023-11-21T05:08:18;28.90;;;15.33;;
21392;SDS011;10857;52.228;21.026;2023-11-21T05:10:47;30.47;;;14.67;;
21392;SDS011;10857;52.228;21.026;2023-11-21T05:13:15;25.37;;;14.87;;
21392;SDS011;10857;52.228;21.026;2023-11-21T05:15:44;25.47;;;13.83;;
21392;SDS011;10857;52.228;21.026;2023-11-21T05:18:11;25.43;;;14.03;;
21392;SDS011;10857;52.228;21.026;2023-11-21T05:20:40;26.03;;;14.03;;
21392;SDS011;10857;52.228;21.026;2023-11-21T05:23:08;23.73;;;14.13;;
21392;SDS011;10857;52.228;21.026;2023-11-21T05:25:35;29.83;;;14.33;;
21392;SDS011;10857;52.228;21.026;2023-11-21T05:28:06;25.03;;;13.77;;
21392;SDS011;10857;52.228;21.026;2023-11-21T05:30:33;25.00;;;13.50;;
21392;SDS011;10857;52.228;21.026;2023-11-21T05:33:00;24.77;;;13.37;;
21392;SDS011;10857;52.228;21.026;2023-11-21T05:35:27;25.23;;;13.20;;
21392;SDS011;10857;52.228;21.026;2023-11-21T05:37:54;24.40;;;13.53;;
21392;SDS011;10857;52.228;21.026;2023-11-21T05:40:22;26.93;;;13.60;;
21392;SDS011;10857;52.228;21.026;2023-11-21T05:42:49;23.47;;;14.00;;
21392;SDS011;10857;52.228;21.026;2023-11-21T05:45:17;24.33;;;13.93;;
21392;SDS011;10857;52.228;21.026;2023-11-21T05:47:45;23.13;;;13.33;;
21392;SDS011;10857;52.228;21.026;2023-11-21T05:50:14;24.27;;;13.33;;
21392;SDS011;10857;52.228;21.026;2023-11-21T05:52:46;27.17;;;13.47;;
21392;SDS011;10857;52.228;21.026;2023-11-21T05:55:14;23.87;;;12.90;;
21392;SDS011;10857;52.228;21.026;2023-11-21T05:57:41;23.63;;;12.83;;
21392;SDS011;10857;52.228;21.026;2023-11-21T06:00:14;23.33;;;12.73;;
21392;SDS011;10857;52.228;21.026;2023-11-21T06:02:52;23.52;;;15.73;;
21392;SDS011;10857;52.228;21.026;2023-11-21T06:05:22;22.73;;;16.25;;
21392;SDS011;10857;52.228;21.026;2023-11-21T06:07:51;24.73;;;13.77;;
21392;SDS011;10857;52.228;21.026;2023-11-21T06:10:20;23.50;;;13.77;;
21392;SDS011;10857;52.228;21.026;2023-11-21T06:12:48;24.10;;;13.77;;
21392;SDS011;10857;52.228;21.026;2023-11-21T06:15:15;26.60;;;14.20;;
21392;SDS011;10857;52.228;21.026;2023-11-21T06:17:45;22.33;;;12.60;;
21392;SDS011;10857;52.228;21.026;2023-11-21T06:20:16;23.90;;;12.77;;
21392;SDS011;10857;52.228;21.026;2023-11-21T06:22:47;26.40;;;12.87;;
21392;SDS011;10857;52.228;21.026;2023-11-21T06:25:16;20.40;;;12.27;;
21392;SDS011;10857;52.228;21.026;2023-11-21T06:27:47;21.80;;;12.67;;
21392;SDS011;10857;52.228;21.026;2023-11-21T06:30:16;21.13;;;12.33;;
21392;SDS011;10857;52.228;21.026;2023-11-21T06:32:45;20.60;;;11.97;;
21392;SDS011;10857;52.228;21.026;2023-11-21T06:35:13;23.70;;;13.40;;
21392;SDS011;10857;52.228;21.026;2023-11-21T06:37:43;23.33;;;13.30;;
21392;SDS011;10857;52.228;21.026;2023-11-21T06:40:16;23.33;;;13.07;;
21392;SDS011;10857;52.228;21.026;2023-11-21T06:42:46;24.53;;;13.23;;
21392;SDS011;10857;52.228;21.026;2023-11-21T06:45:14;26.10;;;13.87;;
21392;SDS011;10857;52.228;21.026;2023-11-21T06:47:42;24.90;;;13.30;;
21392;SDS011;10857;52.228;21.026;2023-11-21T06:50:10;24.65;;;16.77;;
21392;SDS011;10857;52.228;21.026;2023-11-21T06:52:37;23.10;;;14.37;;
21392;SDS011;10857;52.228;21.026;2023-11-21T06:55:05;25.47;;;14.53;;
21392;SDS011;10857;52.228;21.026;2023-11-21T06:57:35;27.33;;;15.40;;
21392;SDS011;10857;52.228;21.026;2023-11-21T07:00:02;28.53;;;14.87;;
21392;SDS011;10857;52.228;21.026;2023-11-21T07:02:30;25.33;;;14.67;;
21392;SDS011;10857;52.228;21.026;2023-11-21T07:04:57;28.10;;;13.83;;
21392;SDS011;10857;52.228;21.026;2023-11-21T07:07:24;25.90;;;14.23;;
21392;SDS011;10857;52.228;21.026;2023-11-21T07:09:52;27.57;;;14.33;;
21392;SDS011;10857;52.228;21.026;2023-11-21T07:12:19;25.20;;;14.43;;
21392;SDS011;10857;52.228;21.026;2023-11-21T07:14:46;28.53;;;15.30;;
21392;SDS011;10857;52.228;21.026;2023-11-21T07:17:13;31.13;;;18.90;;
21392;SDS011;10857;52.228;21.026;2023-11-21T07:19:40;30.90;;;17.00;;
21392;SDS011;10857;52.228;21.026;2023-11-21T07:22:08;29.93;;;16.37;;
21392;SDS011;10857;52.228;21.026;2023-11-21T07:24:35;29.37;;;15.77;;
21392;SDS011;10857;52.228;21.026;2023-11-21T07:27:03;33.73;;;16.00;;
21392;SDS011;10857;52.228;21.026;2023-11-21T07:29:30;30.93;;;16.50;;
21392;SDS011;10857;52.228;21.026;2023-11-21T07:31:58;35.57;;;15.93;;
21392;SDS011;10857;52.228;21.026;2023-11-21T07:34:25;27.53;;;15.70;;
21392;SDS011;10857;52.228;21.026;2023-11-21T07:36:52;33.70;;;17.03;;
21392;SDS011;10857;52.228;21.026;2023-11-21T07:39:19;31.33;;;15.73;;
21392;SDS011;10857;52.228;21.026;2023-11-21T07:41:47;28.20;;;15.40;;
21392;SDS011;10857;52.228;21.026;2023-11-21T07:44:17;27.30;;;15.13;;
21392;SDS011;10857;52.228;21.026;2023-11-21T07:46:44;35.47;;;17.37;;
21392;SDS011;10857;52.228;21.026;2023-11-21T07:49:12;32.90;;;16.60;;
21392;SDS011;10857;52.228;21.026;2023-11-21T07:51:43;25.90;;;14.47;;
21392;SDS011;10857;52.228;21.026;2023-11-21T07:54:10;27.90;;;15.40;;
21392;SDS011;10857;52.228;21.026;2023-11-21T07:56:38;25.83;;;14.77;;
21392;SDS011;10857;52.228;21.026;2023-11-21T07:59:05;26.50;;;14.23;;
21392;SDS011;10857;52.228;21.026;2023-11-21T08:01:32;25.37;;;14.27;;
21392;SDS011;10857;52.228;21.026;2023-11-21T08:03:59;24.10;;;13.50;;
21392;SDS011;10857;52.228;21.026;2023-11-21T08:06:30;29.87;;;14.17;;
21392;SDS011;10857;52.228;21.026;2023-11-21T08:08:58;25.83;;;14.37;;
21392;SDS011;10857;52.228;21.026;2023-11-21T08:11:25;27.93;;;14.47;;
21392;SDS011;10857;52.228;21.026;2023-11-21T08:13:58;25.50;;;13.93;;
21392;SDS011;10857;52.228;21.026;2023-11-21T08:16:26;28.53;;;13.87;;
21392;SDS011;10857;52.228;21.026;2023-11-21T08:18:54;33.50;;;15.20;;
21392;SDS011;10857;52.228;21.026;2023-11-21T08:21:21;26.93;;;14.23;;
21392;SDS011;10857;52.228;21.026;2023-11-21T08:23:51;28.23;;;14.20;;
21392;SDS011;10857;52.228;21.026;2023-11-21T08:26:21;28.57;;;15.60;;
21392;SDS011;10857;52.228;21.026;2023-11-21T08:28:49;27.63;;;14.53;;
21392;SDS011;10857;52.228;21.026;2023-11-21T08:31:25;26.93;;;14.23;;
21392;SDS011;10857;52.228;21.026;2023-11-21T08:33:53;26.37;;;13.73;;
21392;SDS011;10857;52.228;21.026;2023-11-21T08:36:22;26.53;;;14.77;;
21392;SDS011;10857;52.228;21.026;2023-11-21T08:38:50;26.57;;;14.13;;
21392;SDS011;10857;52.228;21.026;2023-11-21T08:41:21;26.70;;;14.00;;
21392;SDS011;10857;52.228;21.026;2023-11-21T08:43:49;25.20;;;13.30;;
21392;SDS011;10857;52.228;21.026;2023-11-21T08:46:17;26.43;;;14.07;;
21392;SDS011;10857;52.228;21.026;2023-11-21T08:48:45;27.30;;;14.57;;
21392;SDS011;10857;52.228;21.026;2023-11-21T08:51:12;25.07;;;14.00;;
21392;SDS011;10857;52.228;21.026;2023-11-21T08:53:40;28.33;;;15.43;;
21392;SDS011;10857;52.228;21.026;2023-11-21T08:56:08;26.90;;;15.07;;
21392;SDS011;10857;52.228;21.026;2023-11-21T08:58:41;26.47;;;14.90;;
21392;SDS011;10857;52.228;21.026;2023-11-21T09:01:09;27.73;;;14.70;;
21392;SDS011;10857;52.228;21.026;2023-11-21T09:03:36;27.20;;;15.13;;
21392;SDS011;10857;52.228;21.026;2023-11-21T09:06:04;26.23;;;14.73;;
21392;SDS011;10857;52.228;21.026;2023-11-21T09:08:31;29.23;;;15.33;;
21392;SDS011;10857;52.228;21.026;2023-11-21T09:10:58;29.80;;;15.53;;
21392;SDS011;10857;52.228;21.026;2023-11-21T09:13:25;27.83;;;14.93;;
21392;SDS011;10857;52.228;21.026;2023-11-21T09:15:53;29.10;;;15.63;;
21392;SDS011;10857;52.228;21.026;2023-11-21T09:18:20;28.33;;;16.00;;
21392;SDS011;10857;52.228;21.026;2023-11-21T09:20:47;28.93;;;15.00;;
21392;SDS011;10857;52.228;21.026;2023-11-21T09:23:14;32.80;;;16.43;;
21392;SDS011;10857;52.228;21.026;2023-11-21T09:25:42;35.80;;;17.93;;
21392;SDS011;10857;52.228;21.026;2023-11-21T09:28:13;34.37;;;16.80;;
21392;SDS011;10857;52.228;21.026;2023-11-21T09:30:40;32.40;;;16.23;;
21392;SDS011;10857;52.228;21.026;2023-11-21T09:33:07;37.43;;;16.77;;
21392;SDS011;10857;52.228;21.026;2023-11-21T09:35:37;49.00;;;18.90;;
21392;SDS011;10857;52.228;21.026;2023-11-21T09:38:05;35.80;;;17.13;;
21392;SDS011;10857;52.228;21.026;2023-11-21T09:40:37;34.33;;;17.13;;
21392;SDS011;10857;52.228;21.026;2023-11-21T09:43:09;37.77;;;16.97;;
21392;SDS011;10857;52.228;21.026;2023-11-21T09:45:45;31.10;;;16.20;;
21392;SDS011;10857;52.228;21.026;2023-11-21T09:48:14;31.27;;;16.50;;
21392;SDS011;10857;52.228;21.026;2023-11-21T09:50:43;32.83;;;16.40;;
21392;SDS011;10857;52.228;21.026;2023-11-21T09:53:17;31.63;;;16.83;;
21392;SDS011;10857;52.228;21.026;2023-11-21T09:55:48;33.07;;;17.37;;
21392;SDS011;10857;52.228;21.026;2023-11-21T09:58:19;31.57;;;17.37;;
21392;SDS011;10857;52.228;21.026;2023-11-21T10:00:48;30.03;;;16.90;;
21392;SDS011;10857;52.228;21.026;2023-11-21T10:03:19;34.97;;;16.83;;
21392;SDS011;10857;52.228;21.026;2023-11-21T10:05:46;40.43;;;20.07;;
21392;SDS011;10857;52.228;21.026;2023-11-21T10:08:17;30.67;;;16.50;;
21392;SDS011;10857;52.228;21.026;2023-11-21T10:10:46;31.47;;;16.67;;
21392;SDS011;10857;52.228;21.026;2023-11-21T10:13:18;28.67;;;15.73;;
21392;SDS011;10857;52.228;21.026;2023-11-21T10:15:50;30.17;;;16.03;;
21392;SDS011;10857;52.228;21.026;2023-11-21T10:18:18;24.60;;;14.77;;
21392;SDS011;10857;52.228;21.026;2023-11-21T10:20:46;27.43;;;15.27;;
21392;SDS011;10857;52.228;21.026;2023-11-21T10:23:20;27.63;;;15.83;;
21392;SDS011;10857;52.228;21.026;2023-11-21T10:25:50;31.43;;;16.37;;
21392;SDS011;10857;52.228;21.026;2023-11-21T10:28:23;30.03;;;15.87;;
21392;SDS011;10857;52.228;21.026;2023-11-21T10:30:51;32.93;;;17.00;;
21392;SDS011;10857;52.228;21.026;2023-11-21T10:33:21;33.03;;;18.03;;
21392;SDS011;10857;52.228;21.026;2023-11-21T10:35:54;29.53;;;16.87;;
21392;SDS011;10857;52.228;21.026;2023-11-21T10:38:21;31.20;;;16.57;;
21392;SDS011;10857;52.228;21.026;2023-11-21T10:40:51;29.67;;;16.63;;
21392;SDS011;10857;52.228;21.026;2023-11-21T10:43:19;32.87;;;17.77;;
21392;SDS011;10857;52.228;21.026;2023-11-21T10:45:46;32.47;;;17.90;;
21392;SDS011;10857;52.228;21.026;2023-11-21T10:48:13;30.63;;;16.73;;
21392;SDS011;10857;52.228;21.026;2023-11-21T10:50:45;34.43;;;16.77;;
21392;SDS011;10857;52.228;21.026;2023-11-21T10:53:13;28.53;;;16.50;;
21392;SDS011;10857;52.228;21.026;2023-11-21T10:55:41;31.90;;;16.83;;
21392;SDS011;10857;52.228;21.026;2023-11-21T10:58:11;31.37;;;17.27;;
21392;SDS011;10857;52.228;21.026;2023-11-21T11:00:40;32.37;;;17.17;;
21392;SDS011;10857;52.228;21.026;2023-11-21T11:03:09;29.37;;;16.43;;
21392;SDS011;10857;52.228;21.026;2023-11-21T11:05:46;32.37;;;16.33;;
21392;SDS011;10857;52.228;21.026;2023-11-21T11:08:21;29.83;;;15.97;;
21392;SDS011;10857;52.228;21.026;2023-11-21T11:10:54;31.37;;;16.37;;
21392;SDS011;10857;52.228;21.026;2023-11-21T11:13:22;29.83;;;16.57;;
21392;SDS011;10857;52.228;21.026;2023-11-21T11:15:51;29.13;;;16.53;;
21392;SDS011;10857;52.228;21.026;2023-11-21T11:18:26;28.00;;;16.00;;
21392;SDS011;10857;52.228;21.026;2023-11-21T11:20:53;30.90;;;16.87;;
21392;SDS011;10857;52.228;21.026;2023-11-21T11:29:32;33.27;;;17.03;;
21392;SDS011;10857;52.228;21.026;2023-11-21T11:32:09;33.70;;;17.00;;
21392;SDS011;10857;52.228;21.026;2023-11-21T11:34:48;35.80;;;18.00;;
21392;SDS011;10857;52.228;21.026;2023-11-21T11:37:24;40.03;;;19.53;;
21392;SDS011;10857;52.228;21.026;2023-11-21T11:39:51;32.90;;;17.70;;
21392;SDS011;10857;52.228;21.026;2023-11-21T11:42:21;33.80;;;17.67;;
21392;SDS011;10857;52.228;21.026;2023-11-21T11:44:50;33.83;;;19.07;;
21392;SDS011;10857;52.228;21.026;2023-11-21T11:47:26;36.70;;;20.07;;
21392;SDS011;10857;52.228;21.026;2023-11-21T11:52:45;38.30;;;19.47;;
21392;SDS011;10857;52.228;21.026;2023-11-21T11:55:13;35.33;;;18.17;;
21392;SDS011;10857;52.228;21.026;2023-11-21T11:57:54;37.90;;;19.30;;
21392;SDS011;10857;52.228;21.026;2023-11-21T12:02:57;32.20;;;18.07;;
21392;SDS011;10857;52.228;21.026;2023-11-21T12:05:29;34.60;;;18.13;;
21392;SDS011;10857;52.228;21.026;2023-11-21T12:08:00;35.57;;;18.77;;
21392;SDS011;10857;52.228;21.026;2023-11-21T12:10:30;36.47;;;19.43;;
21392;SDS011;10857;52.228;21.026;2023-11-21T12:15:34;39.87;;;19.50;;
21392;SDS011;10857;52.228;21.026;2023-11-21T12:18:02;42.83;;;21.83;;
21392;SDS011;10857;52.228;21.026;2023-11-21T12:20:30;39.30;;;21.63;;
21392;SDS011;10857;52.228;21.026;2023-11-21T12:22:58;43.20;;;21.73;;
21392;SDS011;10857;52.228;21.026;2023-11-21T12:25:30;38.60;;;19.97;;
21392;SDS011;10857;52.228;21.026;2023-11-21T12:27:59;37.80;;;19.53;;
21392;SDS011;10857;52.228;21.026;2023-11-21T12:30:27;36.57;;;19.30;;
21392;SDS011;10857;52.228;21.026;2023-11-21T12:32:58;33.87;;;18.27;;
21392;SDS011;10857;52.228;21.026;2023-11-21T12:35:31;34.43;;;18.47;;
21392;SDS011;10857;52.228;21.026;2023-11-21T12:38:01;32.63;;;18.33;;
21392;SDS011;10857;52.228;21.026;2023-11-21T12:40:29;36.23;;;19.33;;
21392;SDS011;10857;52.228;21.026;2023-11-21T12:42:57;35.80;;;18.67;;
21392;SDS011;10857;52.228;21.026;2023-11-21T12:45:26;35.13;;;19.63;;
21392;SDS011;10857;52.228;21.026;2023-11-21T12:47:55;34.43;;;19.13;;
21392;SDS011;10857;52.228;21.026;2023-11-21T12:50:34;35.65;;;22.88;;
21392;SDS011;10857;52.228;21.026;2023-11-21T12:53:04;35.90;;;21.10;;
21392;SDS011;10857;52.228;21.026;2023-11-21T12:55:33;34.97;;;19.40;;
21392;SDS011;10857;52.228;21.026;2023-11-21T12:58:05;33.33;;;18.40;;
21392;SDS011;10857;52.228;21.026;2023-11-21T13:00:39;40.80;;;21.58;;
21392;SDS011;10857;52.228;21.026;2023-11-21T13:03:12;35.80;;;19.67;;
21392;SDS011;10857;52.228;21.026;2023-11-21T13:05:45;36.37;;;19.30;;
21392;SDS011;10857;52.228;21.026;2023-11-21T13:08:15;35.33;;;19.27;;
21392;SDS011;10857;52.228;21.026;2023-11-21T13:10:48;34.10;;;18.23;;
21392;SDS011;10857;52.228;21.026;2023-11-21T13:13:18;30.83;;;18.13;;
21392;SDS011;10857;52.228;21.026;2023-11-21T13:15:54;37.40;;;19.77;;
21392;SDS011;10857;52.228;21.026;2023-11-21T13:18:27;34.03;;;18.73;;
21392;SDS011;10857;52.228;21.026;2023-11-21T13:20:56;33.17;;;19.10;;
21392;SDS011;10857;52.228;21.026;2023-11-21T13:23:29;36.10;;;19.87;;
21392;SDS011;10857;52.228;21.026;2023-11-21T13:26:03;39.60;;;20.40;;
21392;SDS011;10857;52.228;21.026;2023-11-21T13:28:33;36.73;;;20.67;;
21392;SDS011;10857;52.228;21.026;2023-11-21T13:31:02;37.80;;;19.93;;
21392;SDS011;10857;52.228;21.026;2023-11-21T13:33:38;36.53;;;19.33;;
21392;SDS011;10857;52.228;21.026;2023-11-21T13:36:07;37.57;;;20.00;;
21392;SDS011;10857;52.228;21.026;2023-11-21T13:38:37;39.43;;;20.47;;
21392;SDS011;10857;52.228;21.026;2023-11-21T13:41:09;40.33;;;20.70;;
21392;SDS011;10857;52.228;21.026;2023-11-21T13:43:39;39.53;;;21.97;;
21392;SDS011;10857;52.228;21.026;2023-11-21T13:46:10;37.77;;;20.73;;
21392;SDS011;10857;52.228;21.026;2023-11-21T13:48:40;42.33;;;21.80;;
21392;SDS011;10857;52.228;21.026;2023-11-21T13:51:09;41.67;;;21.87;;
21392;SDS011;10857;52.228;21.026;2023-11-21T13:53:45;44.07;;;22.93;;
21392;SDS011;10857;52.228;21.026;2023-11-21T13:56:19;46.83;;;23.40;;
21392;SDS011;10857;52.228;21.026;2023-11-21T13:58:51;41.47;;;21.73;;
21392;SDS011;10857;52.228;21.026;2023-11-21T14:01:23;42.33;;;21.87;;
21392;SDS011;10857;52.228;21.026;2023-11-21T14:03:59;41.43;;;22.27;;
21392;SDS011;10857;52.228;21.026;2023-11-21T14:06:47;42.27;;;21.87;;
21392;SDS011;10857;52.228;21.026;2023-11-21T14:09:17;41.73;;;22.57;;
21392;SDS011;10857;52.228;21.026;2023-11-21T14:11:50;41.23;;;22.13;;
21392;SDS011;10857;52.228;21.026;2023-11-21T14:14:24;45.77;;;21.97;;
21392;SDS011;10857;52.228;21.026;2023-11-21T14:16:53;43.63;;;22.13;;
21392;SDS011;10857;52.228;21.026;2023-11-21T14:19:22;44.07;;;22.73;;
21392;SDS011;10857;52.228;21.026;2023-11-21T14:21:54;42.67;;;22.37;;
21392;SDS011;10857;52.228;21.026;2023-11-21T14:24:21;41.67;;;22.53;;
21392;SDS011;10857;52.228;21.026;2023-11-21T14:26:50;42.83;;;22.63;;
21392;SDS011;10857;52.228;21.026;2023-11-21T14:29:18;43.27;;;22.63;;
21392;SDS011;10857;52.228;21.026;2023-11-21T14:31:50;40.93;;;22.37;;